createdAt,value
2018-12-19T00:00:23.801Z,100448.44
2018-12-19T00:02:50.447Z,100447.12
2018-12-19T00:05:16.665Z,100450.64
2018-12-19T00:07:43.577Z,100435.81
2018-12-19T00:10:11.696Z,100434.09
2018-12-19T00:12:37.856Z,100434.41
2018-12-19T00:15:04.171Z,100431.84
2018-12-19T00:17:30.594Z,100430.02
2018-12-19T00:19:57.058Z,100429.06
2018-12-19T00:22:23.280Z,100432.66
2018-12-19T00:24:50.346Z,100431.46
2018-12-19T00:27:16.711Z,100424.63
2018-12-19T00:29:43.060Z,100418.10
2018-12-19T00:32:11.038Z,100406.98
2018-12-19T00:34:37.313Z,100405.69
2018-12-19T00:37:03.572Z,100404.27
2018-12-19T00:39:33.146Z,100396.42
2018-12-19T00:42:39.299Z,100397.52
2018-12-19T00:45:06.596Z,100393.97
2018-12-19T00:47:32.792Z,100395.09
2018-12-19T00:49:59.121Z,100387.56
2018-12-19T00:52:25.690Z,100392.90
2018-12-19T00:54:54.041Z,100393.47
2018-12-19T00:57:20.791Z,100386.04
2018-12-19T00:59:47.552Z,100383.16
2018-12-19T01:02:20.554Z,100383.17
2018-12-19T01:05:27.194Z,100392.99
2018-12-19T01:08:33.415Z,100393.20
2018-12-19T01:11:39.292Z,100386.67
2018-12-19T01:14:45.284Z,100378.09
2018-12-19T01:17:51.055Z,100373.78
2018-12-19T01:20:50.678Z,100371.89
2018-12-19T01:23:56.803Z,100374.03
2018-12-19T01:27:02.686Z,100376.31
2018-12-19T01:30:08.632Z,100390.53
2018-12-19T01:33:14.621Z,100391.36
2018-12-19T01:35:59.710Z,100386.02
2018-12-19T01:38:25.922Z,100388.63
2018-12-19T01:40:52.122Z,100390.78
2018-12-19T01:43:18.258Z,100390.41
2018-12-19T01:45:44.482Z,100395.36
2018-12-19T01:48:10.803Z,100384.62
2018-12-19T01:50:37.678Z,100376.05
2018-12-19T01:53:04.057Z,100373.20
2018-12-19T01:55:30.738Z,100381.07
2018-12-19T01:57:57.286Z,100387.44
2018-12-19T02:00:25.368Z,100394.72
2018-12-19T02:02:51.524Z,100389.17
2018-12-19T02:05:17.888Z,100381.67
2018-12-19T02:07:44.202Z,100385.34
2018-12-19T02:10:10.579Z,100378.64
2018-12-19T02:12:37.199Z,100378.10
2018-12-19T02:15:03.866Z,100368.46
2018-12-19T02:17:30.064Z,100376.48
2018-12-19T02:19:56.407Z,100369.70
2018-12-19T02:22:22.572Z,100358.27
2018-12-19T02:24:48.836Z,100357.52
2018-12-19T02:27:15.212Z,100353.78
2018-12-19T02:29:41.395Z,100349.89
2018-12-19T02:32:08.083Z,100350.72
2018-12-19T02:34:34.444Z,100344.00
2018-12-19T02:37:01.928Z,100340.50
2018-12-19T02:39:28.209Z,100329.78
2018-12-19T02:41:54.477Z,100322.10
2018-12-19T02:44:20.731Z,100317.66
2018-12-19T02:46:46.902Z,100313.72
2018-12-19T02:49:13.383Z,100313.72
2018-12-19T02:51:39.474Z,100300.81
2018-12-19T02:54:05.650Z,100319.00
2018-12-19T02:56:32.818Z,100322.81
2018-12-19T02:58:58.915Z,100311.43
2018-12-19T03:01:25.103Z,100314.23
2018-12-19T03:03:51.612Z,100308.56
2018-12-19T03:06:17.893Z,100307.02
2018-12-19T03:08:44.099Z,100310.69
2018-12-19T03:11:11.634Z,100312.97
2018-12-19T03:13:37.912Z,100310.43
2018-12-19T03:16:04.175Z,100319.23
2018-12-19T03:18:30.862Z,100307.08
2018-12-19T03:20:56.942Z,100308.49
2018-12-19T03:23:23.203Z,100301.72
2018-12-19T03:25:49.672Z,100304.08
2018-12-19T03:28:15.819Z,100292.11
2018-12-19T03:30:42.302Z,100286.06
2018-12-19T03:33:08.901Z,100293.52
2018-12-19T03:35:35.172Z,100288.48
2018-12-19T03:38:01.435Z,100297.79
2018-12-19T03:40:28.240Z,100294.03
2018-12-19T03:42:54.918Z,100296.80
2018-12-19T03:45:21.279Z,100291.92
2018-12-19T03:47:47.915Z,100284.09
2018-12-19T03:50:14.579Z,100292.23
2018-12-19T03:52:40.654Z,100289.95
2018-12-19T03:55:07.227Z,100285.20
2018-12-19T03:57:33.697Z,100290.42
2018-12-19T03:59:59.868Z,100291.09
2018-12-19T04:02:26.290Z,100297.45
2018-12-19T04:04:52.496Z,100299.58
2018-12-19T04:07:18.847Z,100280.80
2018-12-19T04:09:45.378Z,100278.06
2018-12-19T04:12:11.600Z,100277.41
2018-12-19T04:14:37.660Z,100271.70
2018-12-19T04:17:04.258Z,100270.13
2018-12-19T04:19:30.598Z,100269.84
2018-12-19T04:21:56.656Z,100270.38
2018-12-19T04:24:23.267Z,100265.19
2018-12-19T04:26:49.486Z,100276.06
2018-12-19T04:29:15.670Z,100272.17
2018-12-19T04:31:42.852Z,100273.59
2018-12-19T04:34:09.142Z,100264.09
2018-12-19T04:36:35.406Z,100257.77
2018-12-19T04:39:02.144Z,100255.38
2018-12-19T04:41:28.310Z,100242.34
2018-12-19T04:43:54.463Z,100237.47
2018-12-19T04:46:20.841Z,100234.27
2018-12-19T04:48:47.102Z,100222.55
2018-12-19T04:51:13.498Z,100230.34
2018-12-19T04:53:39.810Z,100223.79
2018-12-19T04:56:06.071Z,100212.88
2018-12-19T04:58:32.452Z,100229.12
2018-12-19T05:00:59.022Z,100226.36
2018-12-19T05:03:25.312Z,100234.05
2018-12-19T05:05:51.498Z,100223.69
2018-12-19T05:08:18.389Z,100223.20
2018-12-19T05:10:44.548Z,100217.60
2018-12-19T05:13:10.718Z,100217.93
2018-12-19T05:15:37.295Z,100219.81
2018-12-19T05:18:03.598Z,100222.93
2018-12-19T05:20:29.696Z,100208.77
2018-12-19T05:22:56.096Z,100211.22
2018-12-19T05:25:22.463Z,100210.08
2018-12-19T05:27:48.631Z,100201.81
2018-12-19T05:30:15.034Z,100231.44
2018-12-19T05:32:41.457Z,100216.23
2018-12-19T05:35:07.749Z,100213.95
2018-12-19T05:37:34.187Z,100201.05
2018-12-19T05:40:00.395Z,100205.86
2018-12-19T05:42:26.552Z,100203.08
2018-12-19T05:44:52.998Z,100205.45
2018-12-19T05:47:19.557Z,100205.50
2018-12-19T05:49:46.231Z,100207.97
2018-12-19T05:52:12.751Z,100215.94
2018-12-19T05:54:38.912Z,100206.87
2018-12-19T05:57:05.087Z,100200.92
2018-12-19T05:59:31.429Z,100189.50
2018-12-19T06:01:57.911Z,100195.14
2018-12-19T06:04:24.025Z,100193.80
2018-12-19T06:06:50.402Z,100194.73
2018-12-19T06:09:16.686Z,100188.41
2018-12-19T06:11:42.855Z,100192.33
2018-12-19T06:14:09.176Z,100191.68
2018-12-19T06:16:35.546Z,100188.34
2018-12-19T06:19:01.718Z,100201.42
2018-12-19T06:21:28.247Z,100190.80
2018-12-19T06:23:54.999Z,100188.52
2018-12-19T06:26:21.210Z,100185.08
2018-12-19T06:28:47.927Z,100188.49
2018-12-19T06:31:14.125Z,100180.30
2018-12-19T06:33:40.551Z,100182.75
2018-12-19T06:36:07.247Z,100186.94
2018-12-19T06:38:33.350Z,100190.53
2018-12-19T06:40:59.612Z,100175.01
2018-12-19T06:43:26.059Z,100175.13
2018-12-19T06:45:52.436Z,100176.13
2018-12-19T06:48:18.706Z,100170.58
2018-12-19T06:50:45.028Z,100178.48
2018-12-19T06:53:11.202Z,100178.75
2018-12-19T06:55:37.379Z,100161.43
2018-12-19T06:58:03.763Z,100171.13
2018-12-19T07:00:29.831Z,100175.37
2018-12-19T07:02:55.906Z,100176.81
2018-12-19T07:05:22.563Z,100179.13
2018-12-19T07:07:48.826Z,100184.04
2018-12-19T07:10:15.021Z,100178.59
2018-12-19T07:12:41.499Z,100174.45
2018-12-19T07:15:08.034Z,100167.42
2018-12-19T07:17:34.251Z,100171.81
2018-12-19T07:20:00.694Z,100177.55
2018-12-19T07:22:26.962Z,100187.09
2018-12-19T07:24:53.587Z,100183.34
2018-12-19T07:27:20.005Z,100187.62
2018-12-19T07:29:46.075Z,100190.36
2018-12-19T07:32:12.470Z,100192.16
2018-12-19T07:34:44.066Z,100195.17
2018-12-19T07:37:07.150Z,100200.31
2018-12-19T07:39:33.244Z,100199.31
2018-12-19T07:41:59.538Z,100205.72
2018-12-19T07:44:25.731Z,100202.98
2018-12-19T07:46:51.825Z,100207.48
2018-12-19T07:49:18.231Z,100204.34
2018-12-19T07:51:44.425Z,100210.67
2018-12-19T07:54:10.761Z,100222.36
2018-12-19T07:56:37.520Z,100213.61
2018-12-19T07:59:03.815Z,100214.88
2018-12-19T08:01:29.883Z,100211.66
2018-12-19T08:03:56.969Z,100206.37
2018-12-19T08:06:23.162Z,100210.67
2018-12-19T08:08:49.238Z,100204.85
2018-12-19T08:11:15.715Z,100211.70
2018-12-19T08:13:41.877Z,100203.86
2018-12-19T08:16:08.055Z,100201.05
2018-12-19T08:18:34.830Z,100207.62
2018-12-19T08:21:01.116Z,100206.72
2018-12-19T08:23:27.473Z,100203.48
2018-12-19T08:25:53.738Z,100204.92
2018-12-19T08:28:19.900Z,100194.16
2018-12-19T08:30:46.178Z,100194.32
2018-12-19T08:33:12.611Z,100191.53
2018-12-19T08:35:38.977Z,100198.91
2018-12-19T08:38:05.171Z,100196.50
2018-12-19T08:40:31.660Z,100205.54
2018-12-19T08:42:57.718Z,100200.73
2018-12-19T08:45:24.562Z,100210.31
2018-12-19T08:47:51.193Z,100215.86
2018-12-19T08:50:17.502Z,100218.59
2018-12-19T08:52:43.701Z,100219.95
2018-12-19T08:55:10.179Z,100223.14
2018-12-19T08:57:36.251Z,100222.97
2018-12-19T09:00:06.540Z,100219.66
2018-12-19T09:02:33.503Z,100226.68
2018-12-19T09:04:59.656Z,100232.58
2018-12-19T09:07:25.833Z,100231.25
2018-12-19T09:09:52.140Z,100242.47
2018-12-19T09:12:18.410Z,100245.36
2018-12-19T09:14:44.746Z,100242.69
2018-12-19T09:17:12.950Z,100242.98
2018-12-19T09:19:39.585Z,100245.80
2018-12-19T09:22:06.837Z,100257.91
2018-12-19T09:24:33.395Z,100267.24
2018-12-19T09:26:59.601Z,100267.06
2018-12-19T09:29:25.766Z,100256.34
2018-12-19T09:31:52.306Z,100260.85
2018-12-19T09:34:18.498Z,100249.05
2018-12-19T09:36:44.671Z,100261.91
2018-12-19T09:39:10.925Z,100257.07
2018-12-19T09:41:37.292Z,100249.23
2018-12-19T09:44:06.338Z,100251.88
2018-12-19T09:46:32.701Z,100243.69
2018-12-19T09:48:59.389Z,100243.84
2018-12-19T09:51:25.693Z,100249.63
2018-12-19T09:53:52.307Z,100246.01
2018-12-19T09:56:18.529Z,100238.08
2018-12-19T09:58:44.733Z,100234.30
2018-12-19T10:01:11.107Z,100233.66
2018-12-19T10:03:37.217Z,100240.73
2018-12-19T10:06:03.595Z,100236.31
2018-12-19T10:08:30.031Z,100232.87
2018-12-19T10:10:56.321Z,100234.05
2018-12-19T10:13:22.486Z,100227.20
2018-12-19T10:15:48.899Z,100237.06
2018-12-19T10:18:15.002Z,100227.11
2018-12-19T10:20:41.242Z,100238.79
2018-12-19T10:23:07.849Z,100241.68
2018-12-19T10:25:33.999Z,100233.23
2018-12-19T10:28:00.322Z,100235.53
2018-12-19T10:30:26.856Z,100234.30
2018-12-19T10:32:55.216Z,100239.57
2018-12-19T10:35:22.764Z,100236.56
2018-12-19T10:37:49.243Z,100235.06
2018-12-19T10:40:15.463Z,100238.48
2018-12-19T10:42:41.840Z,100231.70
2018-12-19T10:45:08.470Z,100231.13
2018-12-19T10:47:34.794Z,100230.14
2018-12-19T10:50:01.121Z,100225.67
2018-12-19T10:52:28.658Z,100218.20
2018-12-19T10:54:54.875Z,100222.42
2018-12-19T10:57:21.114Z,100217.97
2018-12-19T10:59:47.507Z,100222.93
2018-12-19T11:02:13.780Z,100212.77
2018-12-19T11:04:39.922Z,100207.16
2018-12-19T11:07:06.854Z,100185.70
2018-12-19T11:09:33.106Z,100183.08
2018-12-19T11:11:59.438Z,100181.38
2018-12-19T11:14:27.076Z,100173.20
2018-12-19T11:16:53.371Z,100179.41
2018-12-19T11:19:19.545Z,100171.50
2018-12-19T11:21:46.081Z,100172.28
2018-12-19T11:24:12.582Z,100175.17
2018-12-19T11:26:39.261Z,100178.39
2018-12-19T11:29:05.757Z,100181.96
2018-12-19T11:31:32.131Z,100175.00
2018-12-19T11:33:58.743Z,100158.16
2018-12-19T11:36:25.028Z,100154.80
2018-12-19T11:38:51.314Z,100162.53
2018-12-19T11:41:17.463Z,100169.70
2018-12-19T11:43:43.694Z,100176.73
2018-12-19T11:46:09.884Z,100175.92
2018-12-19T11:48:36.220Z,100159.14
2018-12-19T11:51:02.836Z,100150.79
2018-12-19T11:53:29.560Z,100155.48
2018-12-19T11:55:55.855Z,100151.80
2018-12-19T11:58:22.256Z,100150.14
2018-12-19T12:00:48.635Z,100151.77
2018-12-19T12:03:14.922Z,100149.83
2018-12-19T12:05:41.350Z,100142.55
2018-12-19T12:08:07.898Z,100145.13
2018-12-19T12:10:34.176Z,100142.77
2018-12-19T12:13:00.697Z,100143.62
2018-12-19T12:15:26.962Z,100140.12
2018-12-19T12:17:53.239Z,100137.58
2018-12-19T12:20:19.686Z,100122.73
2018-12-19T12:22:45.990Z,100131.19
2018-12-19T12:25:15.206Z,100130.83
2018-12-19T12:27:41.686Z,100133.42
2018-12-19T12:30:09.652Z,100128.59
2018-12-19T12:32:35.982Z,100124.13
2018-12-19T12:35:06.528Z,100126.95
2018-12-19T12:37:32.929Z,100124.14
2018-12-19T12:39:59.286Z,100126.27
2018-12-19T12:42:25.740Z,100129.56
2018-12-19T12:44:52.201Z,100124.45
2018-12-19T12:47:18.780Z,100121.46
2018-12-19T12:49:45.362Z,100121.52
2018-12-19T12:52:11.552Z,100123.93
2018-12-19T12:54:37.761Z,100116.90
2018-12-19T12:57:04.276Z,100113.94
2018-12-19T12:59:30.432Z,100106.72
2018-12-19T13:01:56.607Z,100109.81
2018-12-19T13:04:22.979Z,100113.98
2018-12-19T13:06:49.156Z,100109.92
2018-12-19T13:09:15.419Z,100115.48
2018-12-19T13:11:42.085Z,100120.55
2018-12-19T13:14:08.383Z,100118.31
2018-12-19T13:16:34.663Z,100117.23
2018-12-19T13:19:02.089Z,100113.64
2018-12-19T13:21:28.725Z,100107.44
2018-12-19T13:23:55.138Z,100110.88
2018-12-19T13:26:21.556Z,100115.45
2018-12-19T13:28:47.736Z,100117.91
2018-12-19T13:31:14.203Z,100115.13
2018-12-19T13:33:41.541Z,100109.56
2018-12-19T13:36:07.991Z,100108.69
2018-12-19T13:38:34.126Z,100115.39
2018-12-19T13:41:00.450Z,100108.57
2018-12-19T13:43:26.636Z,100108.39
2018-12-19T13:45:52.883Z,100112.17
2018-12-19T13:48:19.326Z,100107.78
2018-12-19T13:50:45.715Z,100099.98
2018-12-19T13:53:11.883Z,100116.05
2018-12-19T13:55:38.418Z,100120.54
2018-12-19T13:58:07.198Z,100121.18
2018-12-19T14:00:33.004Z,100124.30
2018-12-19T14:02:59.676Z,100123.22
2018-12-19T14:05:25.866Z,100127.53
2018-12-19T14:07:52.147Z,100120.98
2018-12-19T14:10:18.543Z,100121.03
2018-12-19T14:12:44.722Z,100122.83
2018-12-19T14:15:10.999Z,100129.08
2018-12-19T14:17:37.893Z,100124.02
2018-12-19T14:20:06.305Z,100125.80
2018-12-19T14:22:32.611Z,100129.59
2018-12-19T14:24:59.171Z,100134.08
2018-12-19T14:27:25.524Z,100133.07
2018-12-19T14:29:51.739Z,100134.72
2018-12-19T14:32:18.578Z,100141.56
2018-12-19T14:34:44.745Z,100132.73
2018-12-19T14:37:11.139Z,100129.55
2018-12-19T14:39:37.594Z,100133.95
2018-12-19T14:42:03.895Z,100139.62
2018-12-19T14:44:31.423Z,100128.78
2018-12-19T14:46:57.708Z,100125.06
2018-12-19T14:49:23.756Z,100124.95
2018-12-19T14:51:50.026Z,100117.97
2018-12-19T14:54:16.336Z,100120.33
2018-12-19T14:56:42.493Z,100121.36
2018-12-19T14:59:08.775Z,100119.36
2018-12-19T15:01:35.358Z,100117.84
2018-12-19T15:04:01.554Z,100116.33
2018-12-19T15:06:27.838Z,100115.09
2018-12-19T15:08:55.083Z,100110.57
2018-12-19T15:11:21.490Z,100111.84
2018-12-19T15:13:47.719Z,100112.64
2018-12-19T15:16:16.123Z,100105.33
2018-12-19T15:18:42.416Z,100111.03
2018-12-19T15:21:08.680Z,100105.34
2018-12-19T15:23:35.030Z,100101.97
2018-12-19T15:26:01.321Z,100104.74
2018-12-19T15:28:27.572Z,100105.33
2018-12-19T15:30:54.551Z,100096.56
2018-12-19T15:33:20.745Z,100098.16
2018-12-19T15:35:47.329Z,100103.17
2018-12-19T15:38:14.104Z,100093.98
2018-12-19T15:40:40.283Z,100094.62
2018-12-19T15:43:06.494Z,100095.63
2018-12-19T15:45:32.996Z,100102.78
2018-12-19T15:47:59.095Z,100094.74
2018-12-19T15:50:25.386Z,100090.70
2018-12-19T15:52:51.800Z,100088.96
2018-12-19T15:55:17.954Z,100084.06
2018-12-19T15:57:44.238Z,100088.88
2018-12-19T16:00:12.590Z,100089.19
2018-12-19T16:02:38.691Z,100094.00
2018-12-19T16:05:04.971Z,100093.86
2018-12-19T16:07:31.459Z,100086.43
2018-12-19T16:09:57.529Z,100089.32
2018-12-19T16:12:23.829Z,100093.17
2018-12-19T16:14:50.277Z,100096.24
2018-12-19T16:17:16.542Z,100094.02
2018-12-19T16:19:42.704Z,100089.16
2018-12-19T16:22:09.067Z,100089.34
2018-12-19T16:24:35.244Z,100087.96
2018-12-19T16:27:01.630Z,100084.63
2018-12-19T16:29:28.761Z,100076.54
2018-12-19T16:31:54.967Z,100071.14
2018-12-19T16:34:21.155Z,100070.16
2018-12-19T16:36:47.948Z,100070.04
2018-12-19T16:39:14.770Z,100068.26
2018-12-19T16:41:41.059Z,100070.16
2018-12-19T16:44:07.505Z,100068.53
2018-12-19T16:46:33.775Z,100073.70
2018-12-19T16:49:00.030Z,100079.77
2018-12-19T16:51:26.759Z,100075.18
2018-12-19T16:53:53.039Z,100072.58
2018-12-19T16:56:19.310Z,100066.28
2018-12-19T16:58:45.685Z,100064.16
2018-12-19T17:01:11.770Z,100065.27
2018-12-19T17:03:38.036Z,100061.11
2018-12-19T17:06:04.670Z,100073.41
2018-12-19T17:08:30.772Z,100064.25
2018-12-19T17:10:56.921Z,100069.05
2018-12-19T17:13:23.266Z,100066.47
2018-12-19T17:15:49.390Z,100064.07
2018-12-19T17:18:15.671Z,100059.66
2018-12-19T17:20:42.248Z,100059.23
2018-12-19T17:23:09.149Z,100060.20
2018-12-19T17:25:35.424Z,100060.82
2018-12-19T17:28:01.691Z,100064.15
2018-12-19T17:30:28.121Z,100061.50
2018-12-19T17:32:54.283Z,100053.40
2018-12-19T17:35:21.067Z,100053.85
2018-12-19T17:37:47.216Z,100051.13
2018-12-19T17:40:13.383Z,100050.56
2018-12-19T17:42:39.941Z,100054.81
2018-12-19T17:45:06.214Z,100044.77
2018-12-19T17:47:32.372Z,100044.03
2018-12-19T17:50:00.019Z,100043.94
2018-12-19T17:52:26.295Z,100037.27
2018-12-19T17:54:52.476Z,100046.84
2018-12-19T17:57:19.354Z,100041.70
2018-12-19T17:59:45.627Z,100046.72
2018-12-19T18:02:12.003Z,100047.12
2018-12-19T18:04:38.311Z,100043.91
2018-12-19T18:07:04.691Z,100040.23
2018-12-19T18:09:31.186Z,100035.27
2018-12-19T18:11:57.875Z,100034.92
2018-12-19T18:14:24.075Z,100033.05
2018-12-19T18:16:50.323Z,100030.23
2018-12-19T18:19:23.212Z,100029.63
2018-12-19T18:21:45.152Z,100028.82
2018-12-19T18:24:11.449Z,100029.61
2018-12-19T18:26:38.350Z,100036.28
2018-12-19T18:29:04.691Z,100035.13
2018-12-19T18:31:30.894Z,100045.55
2018-12-19T18:33:57.338Z,100048.00
2018-12-19T18:36:23.615Z,100057.56
2018-12-19T18:38:49.887Z,100061.73
2018-12-19T18:41:16.734Z,100063.24
2018-12-19T18:43:42.914Z,100058.73
2018-12-19T18:46:09.080Z,100057.24
2018-12-19T18:48:35.563Z,100050.48
2018-12-19T18:51:02.999Z,100051.64
2018-12-19T18:53:29.262Z,100054.66
2018-12-19T18:55:55.802Z,100055.66
2018-12-19T18:58:21.966Z,100056.11
2018-12-19T19:00:48.312Z,100048.80
2018-12-19T19:03:15.176Z,100046.67
2018-12-19T19:05:41.528Z,100049.41
2018-12-19T19:08:07.759Z,100046.89
2018-12-19T19:10:34.204Z,100047.06
2018-12-19T19:13:00.378Z,100048.59
2018-12-19T19:15:26.591Z,100056.45
2018-12-19T19:17:53.147Z,100052.88
2018-12-19T19:20:19.447Z,100053.77
2018-12-19T19:22:45.730Z,100059.86
2018-12-19T19:25:12.639Z,100052.38
2018-12-19T19:27:38.833Z,100056.56
2018-12-19T19:30:07.562Z,100057.04
2018-12-19T19:32:33.914Z,100055.45
2018-12-19T19:35:00.103Z,100062.83
2018-12-19T19:37:26.282Z,100055.69
2018-12-19T19:39:52.720Z,100057.13
2018-12-19T19:42:18.946Z,100055.70
2018-12-19T19:44:45.110Z,100057.41
2018-12-19T19:47:11.813Z,100057.16
2018-12-19T19:49:38.047Z,100059.83
2018-12-19T19:52:04.447Z,100059.86
2018-12-19T19:54:31.039Z,100062.22
2018-12-19T19:56:57.447Z,100057.69
2018-12-19T19:59:23.512Z,100063.39
2018-12-19T20:01:49.943Z,100058.23
2018-12-19T20:04:16.150Z,100063.45
2018-12-19T20:06:42.257Z,100060.85
2018-12-19T20:09:08.583Z,100060.83
2018-12-19T20:11:34.750Z,100058.73
2018-12-19T20:14:01.057Z,100063.05
2018-12-19T20:16:27.554Z,100062.30
2018-12-19T20:18:53.837Z,100066.30
2018-12-19T20:21:20.012Z,100069.10
2018-12-19T20:23:46.605Z,100079.70
2018-12-19T20:26:12.818Z,100074.00
2018-12-19T20:28:38.988Z,100068.84
2018-12-19T20:31:06.708Z,100076.62
2018-12-19T20:33:32.817Z,100077.39
2018-12-19T20:35:59.013Z,100081.66
2018-12-19T20:38:25.721Z,100081.16
2018-12-19T20:40:52.005Z,100073.66
2018-12-19T20:43:18.275Z,100071.09
2018-12-19T20:45:44.731Z,100075.41
2018-12-19T20:48:10.903Z,100071.59
2018-12-19T20:50:37.188Z,100069.58
2018-12-19T20:53:04.004Z,100068.88
2018-12-19T20:55:30.235Z,100070.39
2018-12-19T20:57:56.512Z,100066.64
2018-12-19T21:00:23.293Z,100068.71
2018-12-19T21:02:49.769Z,100064.95
2018-12-19T21:05:16.027Z,100065.12
2018-12-19T21:07:42.488Z,100062.81
2018-12-19T21:10:08.791Z,100057.50
2018-12-19T21:12:35.075Z,100057.86
2018-12-19T21:15:03.345Z,100050.56
2018-12-19T21:17:35.872Z,100054.55
2018-12-19T21:20:05.107Z,100056.70
2018-12-19T21:22:32.528Z,100055.52
2018-12-19T21:24:58.708Z,100058.02
2018-12-19T21:27:25.016Z,100050.47
2018-12-19T21:29:51.266Z,100055.61
2018-12-19T21:32:17.834Z,100051.55
2018-12-19T21:34:44.184Z,100043.03
2018-12-19T21:37:10.480Z,100048.25
2018-12-19T21:39:36.644Z,100043.61
2018-12-19T21:42:03.387Z,100046.43
2018-12-19T21:44:29.607Z,100047.51
2018-12-19T21:46:56.095Z,100047.73
2018-12-19T21:49:23.175Z,100039.20
2018-12-19T21:51:49.579Z,100044.00
2018-12-19T21:54:15.818Z,100046.55
2018-12-19T21:56:42.371Z,100044.29
2018-12-19T21:59:08.425Z,100039.62
2018-12-19T22:01:34.742Z,100041.66
2018-12-19T22:04:01.524Z,100038.25
2018-12-19T22:06:27.998Z,100041.68
2018-12-19T22:08:54.276Z,100042.07
2018-12-19T22:11:20.663Z,100045.06
2018-12-19T22:13:46.965Z,100047.20
2018-12-19T22:16:15.298Z,100051.72
2018-12-19T22:18:43.764Z,100045.83
2018-12-19T22:21:10.050Z,100048.55
2018-12-19T22:23:36.298Z,100049.75
2018-12-19T22:26:02.635Z,100051.79
2018-12-19T22:28:29.019Z,100061.05
2018-12-19T22:30:55.240Z,100057.50
2018-12-19T22:33:21.879Z,100047.64
2018-12-19T22:35:47.952Z,100047.70
2018-12-19T22:38:14.365Z,100049.11
2018-12-19T22:40:40.986Z,100054.17
2018-12-19T22:43:07.274Z,100046.37
2018-12-19T22:45:33.500Z,100043.61
2018-12-19T22:48:00.222Z,100043.75
2018-12-19T22:50:33.301Z,100039.80
2018-12-19T22:52:59.827Z,100036.95
2018-12-19T22:55:26.297Z,100039.62
2018-12-19T22:57:52.535Z,100037.16
2018-12-19T23:00:19.659Z,100040.23
2018-12-19T23:02:52.186Z,100035.66
2018-12-19T23:05:21.059Z,100031.72
2018-12-19T23:07:47.352Z,100033.27
2018-12-19T23:10:13.719Z,100034.84
2018-12-19T23:12:40.466Z,100027.09
2018-12-19T23:15:06.811Z,100035.91
2018-12-19T23:17:39.016Z,100026.72
2018-12-19T23:20:08.652Z,100033.25
2018-12-19T23:22:34.853Z,100031.20
2018-12-19T23:25:01.311Z,100032.93
2018-12-19T23:27:27.886Z,100030.13
2018-12-19T23:29:54.373Z,100037.11
2018-12-19T23:32:23.111Z,100036.62
2018-12-19T23:34:49.776Z,100029.36
2018-12-19T23:37:16.101Z,100024.09
2018-12-19T23:39:42.400Z,100035.45
2018-12-19T23:42:09.097Z,100030.09
2018-12-19T23:44:35.274Z,100030.80
2018-12-19T23:47:01.461Z,100028.19
2018-12-19T23:49:28.088Z,100028.19
2018-12-19T23:51:54.389Z,100022.11
2018-12-19T23:54:20.700Z,100016.89
2018-12-19T23:56:47.185Z,100019.22
2018-12-19T23:59:13.397Z,100016.28
